sensor_id;sensor_type;location;lat;lon;timestamp;P1;durP1;ratioP1;P2;durP2;ratioP2
20036;SDS011;10179;42.640;23.312;2024-03-08T00:00:22;18.38;;;8.93;;
20036;SDS011;10179;42.640;23.312;2024-03-08T00:02:48;16.85;;;9.02;;
20036;SDS011;10179;42.640;23.312;2024-03-08T00:05:15;18.23;;;9.23;;
20036;SDS011;10179;42.640;23.312;2024-03-08T00:07:41;14.35;;;8.25;;
20036;SDS011;10179;42.640;23.312;2024-03-08T00:10:07;14.52;;;7.85;;
20036;SDS011;10179;42.640;23.312;2024-03-08T00:12:36;14.90;;;8.20;;
20036;SDS011;10179;42.640;23.312;2024-03-08T00:15:02;15.05;;;8.20;;
20036;SDS011;10179;42.640;23.312;2024-03-08T00:17:28;15.20;;;7.93;;
20036;SDS011;10179;42.640;23.312;2024-03-08T00:19:53;14.13;;;7.05;;
20036;SDS011;10179;42.640;23.312;2024-03-08T00:22:19;12.10;;;6.78;;
20036;SDS011;10179;42.640;23.312;2024-03-08T00:24:44;14.23;;;6.88;;
20036;SDS011;10179;42.640;23.312;2024-03-08T00:27:10;9.98;;;5.95;;
20036;SDS011;10179;42.640;23.312;2024-03-08T00:29:36;13.05;;;6.40;;
20036;SDS011;10179;42.640;23.312;2024-03-08T00:32:03;9.60;;;5.60;;
20036;SDS011;10179;42.640;23.312;2024-03-08T00:34:29;10.80;;;6.10;;
20036;SDS011;10179;42.640;23.312;2024-03-08T00:36:55;10.10;;;5.97;;
20036;SDS011;10179;42.640;23.312;2024-03-08T00:39:20;10.23;;;6.25;;
20036;SDS011;10179;42.640;23.312;2024-03-08T00:41:46;8.10;;;5.28;;
20036;SDS011;10179;42.640;23.312;2024-03-08T00:44:12;9.30;;;5.47;;
20036;SDS011;10179;42.640;23.312;2024-03-08T00:46:38;8.43;;;5.03;;
20036;SDS011;10179;42.640;23.312;2024-03-08T00:49:03;8.13;;;4.32;;
20036;SDS011;10179;42.640;23.312;2024-03-08T00:51:29;7.20;;;4.40;;
20036;SDS011;10179;42.640;23.312;2024-03-08T00:53:54;11.00;;;4.93;;
20036;SDS011;10179;42.640;23.312;2024-03-08T00:56:20;6.45;;;3.85;;
20036;SDS011;10179;42.640;23.312;2024-03-08T00:58:45;5.80;;;3.53;;
20036;SDS011;10179;42.640;23.312;2024-03-08T01:01:12;5.85;;;3.67;;
20036;SDS011;10179;42.640;23.312;2024-03-08T01:03:42;6.82;;;4.00;;
20036;SDS011;10179;42.640;23.312;2024-03-08T01:06:08;5.30;;;3.45;;
20036;SDS011;10179;42.640;23.312;2024-03-08T01:08:33;4.82;;;3.08;;
20036;SDS011;10179;42.640;23.312;2024-03-08T01:10:59;6.10;;;3.08;;
20036;SDS011;10179;42.640;23.312;2024-03-08T01:13:24;6.38;;;3.63;;
20036;SDS011;10179;42.640;23.312;2024-03-08T01:15:49;5.22;;;3.00;;
20036;SDS011;10179;42.640;23.312;2024-03-08T01:18:15;4.10;;;3.00;;
20036;SDS011;10179;42.640;23.312;2024-03-08T01:20:40;4.82;;;3.38;;
20036;SDS011;10179;42.640;23.312;2024-03-08T01:23:06;5.22;;;3.13;;
20036;SDS011;10179;42.640;23.312;2024-03-08T01:25:32;3.92;;;3.00;;
20036;SDS011;10179;42.640;23.312;2024-03-08T01:28:00;4.15;;;2.92;;
20036;SDS011;10179;42.640;23.312;2024-03-08T01:30:25;4.95;;;3.50;;
20036;SDS011;10179;42.640;23.312;2024-03-08T01:32:51;4.13;;;2.60;;
20036;SDS011;10179;42.640;23.312;2024-03-08T01:35:16;4.68;;;2.95;;
20036;SDS011;10179;42.640;23.312;2024-03-08T01:37:43;3.45;;;2.50;;
20036;SDS011;10179;42.640;23.312;2024-03-08T01:40:08;4.50;;;2.60;;
20036;SDS011;10179;42.640;23.312;2024-03-08T01:42:34;4.53;;;2.97;;
20036;SDS011;10179;42.640;23.312;2024-03-08T01:45:03;5.47;;;3.00;;
20036;SDS011;10179;42.640;23.312;2024-03-08T01:47:30;4.53;;;2.55;;
20036;SDS011;10179;42.640;23.312;2024-03-08T01:49:58;4.22;;;2.67;;
20036;SDS011;10179;42.640;23.312;2024-03-08T01:52:26;5.05;;;3.25;;
20036;SDS011;10179;42.640;23.312;2024-03-08T01:54:53;4.25;;;2.80;;
20036;SDS011;10179;42.640;23.312;2024-03-08T01:57:20;4.47;;;3.10;;
20036;SDS011;10179;42.640;23.312;2024-03-08T01:59:45;5.28;;;2.78;;
20036;SDS011;10179;42.640;23.312;2024-03-08T02:02:11;3.97;;;2.58;;
20036;SDS011;10179;42.640;23.312;2024-03-08T02:04:40;5.28;;;3.45;;
20036;SDS011;10179;42.640;23.312;2024-03-08T02:07:05;4.10;;;2.88;;
20036;SDS011;10179;42.640;23.312;2024-03-08T02:09:31;6.53;;;2.97;;
20036;SDS011;10179;42.640;23.312;2024-03-08T02:11:56;6.47;;;3.10;;
20036;SDS011;10179;42.640;23.312;2024-03-08T02:14:22;3.95;;;2.50;;
20036;SDS011;10179;42.640;23.312;2024-03-08T02:16:48;4.60;;;2.67;;
20036;SDS011;10179;42.640;23.312;2024-03-08T02:19:14;4.10;;;2.53;;
20036;SDS011;10179;42.640;23.312;2024-03-08T02:21:39;3.80;;;2.53;;
20036;SDS011;10179;42.640;23.312;2024-03-08T02:24:04;4.03;;;2.25;;
20036;SDS011;10179;42.640;23.312;2024-03-08T02:26:31;2.72;;;2.30;;
20036;SDS011;10179;42.640;23.312;2024-03-08T02:28:56;2.97;;;2.20;;
20036;SDS011;10179;42.640;23.312;2024-03-08T02:31:21;3.53;;;2.45;;
20036;SDS011;10179;42.640;23.312;2024-03-08T02:33:47;3.40;;;2.30;;
20036;SDS011;10179;42.640;23.312;2024-03-08T02:36:12;3.58;;;2.67;;
20036;SDS011;10179;42.640;23.312;2024-03-08T02:38:38;4.45;;;2.72;;
20036;SDS011;10179;42.640;23.312;2024-03-08T02:41:05;4.13;;;2.40;;
20036;SDS011;10179;42.640;23.312;2024-03-08T02:43:31;3.85;;;2.55;;
20036;SDS011;10179;42.640;23.312;2024-03-08T02:45:56;4.53;;;2.60;;
20036;SDS011;10179;42.640;23.312;2024-03-08T02:48:22;2.78;;;1.83;;
20036;SDS011;10179;42.640;23.312;2024-03-08T02:50:47;3.00;;;1.95;;
20036;SDS011;10179;42.640;23.312;2024-03-08T02:53:13;3.85;;;2.60;;
20036;SDS011;10179;42.640;23.312;2024-03-08T02:55:39;2.72;;;2.05;;
20036;SDS011;10179;42.640;23.312;2024-03-08T02:58:05;2.45;;;1.95;;
20036;SDS011;10179;42.640;23.312;2024-03-08T03:00:35;3.22;;;2.22;;
20036;SDS011;10179;42.640;23.312;2024-03-08T03:03:00;4.43;;;2.80;;
20036;SDS011;10179;42.640;23.312;2024-03-08T03:05:28;2.65;;;2.22;;
20036;SDS011;10179;42.640;23.312;2024-03-08T03:07:54;4.18;;;2.63;;
20036;SDS011;10179;42.640;23.312;2024-03-08T03:10:20;5.07;;;2.47;;
20036;SDS011;10179;42.640;23.312;2024-03-08T03:12:47;2.70;;;2.08;;
20036;SDS011;10179;42.640;23.312;2024-03-08T03:15:16;3.33;;;2.47;;
20036;SDS011;10179;42.640;23.312;2024-03-08T03:17:49;2.97;;;2.10;;
20036;SDS011;10179;42.640;23.312;2024-03-08T03:20:18;1.58;;;1.40;;
20036;SDS011;10179;42.640;23.312;2024-03-08T03:22:58;2.03;;;1.40;;
20036;SDS011;10179;42.640;23.312;2024-03-08T03:25:26;2.10;;;1.50;;
20036;SDS011;10179;42.640;23.312;2024-03-08T03:27:54;2.50;;;1.25;;
20036;SDS011;10179;42.640;23.312;2024-03-08T03:30:25;1.40;;;1.15;;
20036;SDS011;10179;42.640;23.312;2024-03-08T03:32:52;2.55;;;1.20;;
20036;SDS011;10179;42.640;23.312;2024-03-08T03:35:19;1.98;;;1.17;;
20036;SDS011;10179;42.640;23.312;2024-03-08T03:37:48;1.85;;;1.40;;
20036;SDS011;10179;42.640;23.312;2024-03-08T03:40:29;1.63;;;1.30;;
20036;SDS011;10179;42.640;23.312;2024-03-08T03:42:54;1.80;;;1.60;;
20036;SDS011;10179;42.640;23.312;2024-03-08T03:45:21;3.13;;;1.60;;
20036;SDS011;10179;42.640;23.312;2024-03-08T03:47:46;2.58;;;1.80;;
20036;SDS011;10179;42.640;23.312;2024-03-08T03:50:12;2.47;;;1.75;;
20036;SDS011;10179;42.640;23.312;2024-03-08T03:52:37;2.58;;;1.83;;
20036;SDS011;10179;42.640;23.312;2024-03-08T03:55:03;2.80;;;1.58;;
20036;SDS011;10179;42.640;23.312;2024-03-08T03:57:29;1.70;;;1.60;;
20036;SDS011;10179;42.640;23.312;2024-03-08T03:59:55;2.28;;;1.80;;
20036;SDS011;10179;42.640;23.312;2024-03-08T04:02:23;3.05;;;1.17;;
20036;SDS011;10179;42.640;23.312;2024-03-08T04:04:49;2.83;;;1.60;;
20036;SDS011;10179;42.640;23.312;2024-03-08T04:07:14;4.15;;;1.70;;
20036;SDS011;10179;42.640;23.312;2024-03-08T04:09:40;3.03;;;1.50;;
20036;SDS011;10179;42.640;23.312;2024-03-08T04:12:05;5.85;;;2.05;;
20036;SDS011;10179;42.640;23.312;2024-03-08T04:14:32;4.20;;;2.17;;
20036;SDS011;10179;42.640;23.312;2024-03-08T04:16:58;2.70;;;1.85;;
20036;SDS011;10179;42.640;23.312;2024-03-08T04:19:23;2.00;;;1.58;;
20036;SDS011;10179;42.640;23.312;2024-03-08T04:21:49;2.28;;;1.60;;
20036;SDS011;10179;42.640;23.312;2024-03-08T04:24:14;2.42;;;1.20;;
20036;SDS011;10179;42.640;23.312;2024-03-08T04:26:42;1.75;;;1.50;;
20036;SDS011;10179;42.640;23.312;2024-03-08T04:29:07;1.83;;;1.30;;
20036;SDS011;10179;42.640;23.312;2024-03-08T04:31:32;1.17;;;1.05;;
20036;SDS011;10179;42.640;23.312;2024-03-08T04:33:58;2.55;;;1.30;;
20036;SDS011;10179;42.640;23.312;2024-03-08T04:36:23;2.50;;;1.30;;
20036;SDS011;10179;42.640;23.312;2024-03-08T04:38:49;1.73;;;1.30;;
20036;SDS011;10179;42.640;23.312;2024-03-08T04:41:16;2.13;;;1.48;;
20036;SDS011;10179;42.640;23.312;2024-03-08T04:43:42;5.03;;;1.70;;
20036;SDS011;10179;42.640;23.312;2024-03-08T04:46:08;3.10;;;1.80;;
20036;SDS011;10179;42.640;23.312;2024-03-08T04:48:33;3.47;;;1.70;;
20036;SDS011;10179;42.640;23.312;2024-03-08T04:51:02;3.35;;;1.70;;
20036;SDS011;10179;42.640;23.312;2024-03-08T04:53:27;2.28;;;1.33;;
20036;SDS011;10179;42.640;23.312;2024-03-08T04:55:54;3.13;;;1.60;;
20036;SDS011;10179;42.640;23.312;2024-03-08T04:58:19;2.47;;;1.77;;
20036;SDS011;10179;42.640;23.312;2024-03-08T05:00:46;2.28;;;1.80;;
20036;SDS011;10179;42.640;23.312;2024-03-08T05:03:11;2.40;;;1.85;;
20036;SDS011;10179;42.640;23.312;2024-03-08T05:05:36;2.45;;;1.65;;
20036;SDS011;10179;42.640;23.312;2024-03-08T05:08:02;2.03;;;1.60;;
20036;SDS011;10179;42.640;23.312;2024-03-08T05:10:27;2.47;;;1.70;;
20036;SDS011;10179;42.640;23.312;2024-03-08T05:12:53;2.22;;;1.77;;
20036;SDS011;10179;42.640;23.312;2024-03-08T05:15:18;3.85;;;1.98;;
20036;SDS011;10179;42.640;23.312;2024-03-08T05:17:45;3.25;;;2.20;;
20036;SDS011;10179;42.640;23.312;2024-03-08T05:20:11;4.47;;;2.33;;
20036;SDS011;10179;42.640;23.312;2024-03-08T05:22:38;3.97;;;2.22;;
20036;SDS011;10179;42.640;23.312;2024-03-08T05:25:05;3.83;;;2.75;;
20036;SDS011;10179;42.640;23.312;2024-03-08T05:27:33;5.50;;;2.88;;
20036;SDS011;10179;42.640;23.312;2024-03-08T05:29:59;5.40;;;2.83;;
20036;SDS011;10179;42.640;23.312;2024-03-08T05:32:24;3.58;;;2.50;;
20036;SDS011;10179;42.640;23.312;2024-03-08T05:34:50;5.03;;;2.72;;
20036;SDS011;10179;42.640;23.312;2024-03-08T05:37:15;4.53;;;3.10;;
20036;SDS011;10179;42.640;23.312;2024-03-08T05:39:41;4.28;;;3.03;;
20036;SDS011;10179;42.640;23.312;2024-03-08T05:42:06;6.15;;;3.33;;
20036;SDS011;10179;42.640;23.312;2024-03-08T05:44:33;2.90;;;2.55;;
20036;SDS011;10179;42.640;23.312;2024-03-08T05:46:59;11.02;;;3.15;;
20036;SDS011;10179;42.640;23.312;2024-03-08T05:49:25;4.47;;;3.03;;
20036;SDS011;10179;42.640;23.312;2024-03-08T05:51:50;5.55;;;3.65;;
20036;SDS011;10179;42.640;23.312;2024-03-08T05:54:16;5.05;;;3.60;;
20036;SDS011;10179;42.640;23.312;2024-03-08T05:56:42;5.97;;;3.55;;
20036;SDS011;10179;42.640;23.312;2024-03-08T05:59:08;5.25;;;2.97;;
20036;SDS011;10179;42.640;23.312;2024-03-08T06:01:34;3.85;;;2.28;;
20036;SDS011;10179;42.640;23.312;2024-03-08T06:04:01;3.63;;;2.67;;
20036;SDS011;10179;42.640;23.312;2024-03-08T06:06:27;4.50;;;2.45;;
20036;SDS011;10179;42.640;23.312;2024-03-08T06:08:52;3.03;;;2.22;;
20036;SDS011;10179;42.640;23.312;2024-03-08T06:11:18;3.58;;;2.60;;
20036;SDS011;10179;42.640;23.312;2024-03-08T06:13:45;4.93;;;3.00;;
20036;SDS011;10179;42.640;23.312;2024-03-08T06:16:11;3.72;;;2.92;;
20036;SDS011;10179;42.640;23.312;2024-03-08T06:18:37;7.30;;;3.80;;
20036;SDS011;10179;42.640;23.312;2024-03-08T06:21:03;3.05;;;2.33;;
20036;SDS011;10179;42.640;23.312;2024-03-08T06:23:30;3.78;;;2.90;;
20036;SDS011;10179;42.640;23.312;2024-03-08T06:25:59;4.18;;;2.85;;
20036;SDS011;10179;42.640;23.312;2024-03-08T06:28:26;3.55;;;2.90;;
20036;SDS011;10179;42.640;23.312;2024-03-08T06:30:51;4.82;;;2.47;;
20036;SDS011;10179;42.640;23.312;2024-03-08T06:33:17;7.45;;;5.05;;
20036;SDS011;10179;42.640;23.312;2024-03-08T06:35:43;7.38;;;4.10;;
20036;SDS011;10179;42.640;23.312;2024-03-08T06:38:08;6.47;;;4.10;;
20036;SDS011;10179;42.640;23.312;2024-03-08T06:40:34;8.93;;;5.03;;
20036;SDS011;10179;42.640;23.312;2024-03-08T06:42:59;7.68;;;3.75;;
20036;SDS011;10179;42.640;23.312;2024-03-08T06:45:25;9.90;;;5.22;;
20036;SDS011;10179;42.640;23.312;2024-03-08T06:47:51;13.77;;;6.90;;
20036;SDS011;10179;42.640;23.312;2024-03-08T06:50:16;9.25;;;5.28;;
20036;SDS011;10179;42.640;23.312;2024-03-08T06:52:42;13.02;;;7.30;;
20036;SDS011;10179;42.640;23.312;2024-03-08T06:55:09;10.57;;;6.68;;
20036;SDS011;10179;42.640;23.312;2024-03-08T06:57:40;9.63;;;5.63;;
20036;SDS011;10179;42.640;23.312;2024-03-08T07:00:07;10.73;;;5.80;;
20036;SDS011;10179;42.640;23.312;2024-03-08T07:02:43;9.02;;;5.53;;
20036;SDS011;10179;42.640;23.312;2024-03-08T07:05:11;9.88;;;5.55;;
20036;SDS011;10179;42.640;23.312;2024-03-08T07:07:37;10.38;;;6.15;;
20036;SDS011;10179;42.640;23.312;2024-03-08T07:10:03;8.25;;;5.25;;
20036;SDS011;10179;42.640;23.312;2024-03-08T07:12:29;8.23;;;5.45;;
20036;SDS011;10179;42.640;23.312;2024-03-08T07:14:55;8.88;;;5.20;;
20036;SDS011;10179;42.640;23.312;2024-03-08T07:17:20;8.98;;;4.88;;
20036;SDS011;10179;42.640;23.312;2024-03-08T07:19:46;8.50;;;5.13;;
20036;SDS011;10179;42.640;23.312;2024-03-08T07:22:11;5.68;;;3.80;;
20036;SDS011;10179;42.640;23.312;2024-03-08T07:24:37;8.90;;;4.95;;
20036;SDS011;10179;42.640;23.312;2024-03-08T07:27:21;7.10;;;4.65;;
20036;SDS011;10179;42.640;23.312;2024-03-08T07:29:46;9.75;;;4.90;;
20036;SDS011;10179;42.640;23.312;2024-03-08T07:32:12;9.82;;;4.97;;
20036;SDS011;10179;42.640;23.312;2024-03-08T07:34:46;6.75;;;4.07;;
20036;SDS011;10179;42.640;23.312;2024-03-08T07:37:15;6.13;;;3.60;;
20036;SDS011;10179;42.640;23.312;2024-03-08T07:39:41;8.68;;;3.72;;
20036;SDS011;10179;42.640;23.312;2024-03-08T07:42:07;5.30;;;3.15;;
20036;SDS011;10179;42.640;23.312;2024-03-08T07:44:32;4.63;;;3.28;;
20036;SDS011;10179;42.640;23.312;2024-03-08T07:46:58;7.22;;;4.07;;
20036;SDS011;10179;42.640;23.312;2024-03-08T07:49:24;7.03;;;3.83;;
20036;SDS011;10179;42.640;23.312;2024-03-08T07:51:49;7.97;;;3.60;;
20036;SDS011;10179;42.640;23.312;2024-03-08T07:54:16;21.02;;;5.22;;
20036;SDS011;10179;42.640;23.312;2024-03-08T07:56:42;5.97;;;3.78;;
20036;SDS011;10179;42.640;23.312;2024-03-08T07:59:07;7.53;;;3.92;;
20036;SDS011;10179;42.640;23.312;2024-03-08T08:01:33;6.78;;;4.43;;
20036;SDS011;10179;42.640;23.312;2024-03-08T08:03:58;6.93;;;3.53;;
20036;SDS011;10179;42.640;23.312;2024-03-08T08:06:26;5.60;;;3.90;;
20036;SDS011;10179;42.640;23.312;2024-03-08T08:08:51;6.78;;;4.07;;
20036;SDS011;10179;42.640;23.312;2024-03-08T08:11:17;9.15;;;4.40;;
20036;SDS011;10179;42.640;23.312;2024-03-08T08:13:43;10.25;;;4.40;;
20036;SDS011;10179;42.640;23.312;2024-03-08T08:16:08;8.02;;;4.55;;
20036;SDS011;10179;42.640;23.312;2024-03-08T08:18:34;7.90;;;5.38;;
20036;SDS011;10179;42.640;23.312;2024-03-08T08:21:00;6.90;;;4.43;;
20036;SDS011;10179;42.640;23.312;2024-03-08T08:23:26;12.27;;;5.20;;
20036;SDS011;10179;42.640;23.312;2024-03-08T08:25:51;11.30;;;5.43;;
20036;SDS011;10179;42.640;23.312;2024-03-08T08:28:17;12.55;;;6.53;;
20036;SDS011;10179;42.640;23.312;2024-03-08T08:30:43;9.90;;;5.32;;
20036;SDS011;10179;42.640;23.312;2024-03-08T08:33:09;8.95;;;5.47;;
20036;SDS011;10179;42.640;23.312;2024-03-08T08:35:36;10.98;;;5.95;;
20036;SDS011;10179;42.640;23.312;2024-03-08T08:38:02;8.93;;;5.88;;
20036;SDS011;10179;42.640;23.312;2024-03-08T08:40:28;10.95;;;6.00;;
20036;SDS011;10179;42.640;23.312;2024-03-08T08:42:56;9.88;;;6.15;;
20036;SDS011;10179;42.640;23.312;2024-03-08T08:45:22;11.82;;;5.75;;
20036;SDS011;10179;42.640;23.312;2024-03-08T08:47:48;13.80;;;7.25;;
20036;SDS011;10179;42.640;23.312;2024-03-08T08:50:14;10.30;;;5.72;;
20036;SDS011;10179;42.640;23.312;2024-03-08T08:52:41;11.02;;;6.95;;
20036;SDS011;10179;42.640;23.312;2024-03-08T08:55:09;8.73;;;5.60;;
20036;SDS011;10179;42.640;23.312;2024-03-08T08:57:39;11.70;;;6.50;;
20036;SDS011;10179;42.640;23.312;2024-03-08T09:00:07;21.27;;;6.80;;
20036;SDS011;10179;42.640;23.312;2024-03-08T09:02:33;9.20;;;5.43;;
20036;SDS011;10179;42.640;23.312;2024-03-08T09:04:59;14.63;;;5.93;;
20036;SDS011;10179;42.640;23.312;2024-03-08T09:07:26;13.43;;;6.93;;
20036;SDS011;10179;42.640;23.312;2024-03-08T09:09:52;10.68;;;6.05;;
20036;SDS011;10179;42.640;23.312;2024-03-08T09:12:22;13.57;;;5.80;;
20036;SDS011;10179;42.640;23.312;2024-03-08T09:14:47;8.93;;;4.55;;
20036;SDS011;10179;42.640;23.312;2024-03-08T09:17:13;10.73;;;5.28;;
20036;SDS011;10179;42.640;23.312;2024-03-08T09:19:42;15.68;;;6.10;;
20036;SDS011;10179;42.640;23.312;2024-03-08T09:22:08;19.02;;;6.50;;
20036;SDS011;10179;42.640;23.312;2024-03-08T09:24:33;12.35;;;5.25;;
20036;SDS011;10179;42.640;23.312;2024-03-08T09:26:58;16.70;;;5.22;;
20036;SDS011;10179;42.640;23.312;2024-03-08T09:29:24;9.65;;;5.13;;
20036;SDS011;10179;42.640;23.312;2024-03-08T09:31:49;12.43;;;5.50;;
20036;SDS011;10179;42.640;23.312;2024-03-08T09:34:15;14.63;;;5.95;;
20036;SDS011;10179;42.640;23.312;2024-03-08T09:36:40;15.43;;;4.57;;
20036;SDS011;10179;42.640;23.312;2024-03-08T09:39:06;5.57;;;4.13;;
20036;SDS011;10179;42.640;23.312;2024-03-08T09:41:32;11.00;;;4.25;;
20036;SDS011;10179;42.640;23.312;2024-03-08T09:43:59;6.93;;;4.60;;
20036;SDS011;10179;42.640;23.312;2024-03-08T09:46:25;11.93;;;4.78;;
20036;SDS011;10179;42.640;23.312;2024-03-08T09:48:52;8.77;;;4.20;;
20036;SDS011;10179;42.640;23.312;2024-03-08T09:51:19;4.50;;;3.25;;
20036;SDS011;10179;42.640;23.312;2024-03-08T09:53:50;4.72;;;3.35;;
20036;SDS011;10179;42.640;23.312;2024-03-08T09:56:16;5.03;;;3.00;;
20036;SDS011;10179;42.640;23.312;2024-03-08T09:58:42;3.70;;;2.45;;
20036;SDS011;10179;42.640;23.312;2024-03-08T10:01:22;5.82;;;3.15;;
20036;SDS011;10179;42.640;23.312;2024-03-08T10:03:48;19.02;;;3.88;;
20036;SDS011;10179;42.640;23.312;2024-03-08T10:06:14;5.40;;;3.13;;
20036;SDS011;10179;42.640;23.312;2024-03-08T10:08:39;14.63;;;3.45;;
20036;SDS011;10179;42.640;23.312;2024-03-08T10:11:04;9.52;;;3.50;;
20036;SDS011;10179;42.640;23.312;2024-03-08T10:13:30;20.95;;;4.40;;
20036;SDS011;10179;42.640;23.312;2024-03-08T10:15:57;6.35;;;3.42;;
20036;SDS011;10179;42.640;23.312;2024-03-08T10:18:22;5.80;;;3.75;;
20036;SDS011;10179;42.640;23.312;2024-03-08T10:21:03;4.13;;;2.58;;
20036;SDS011;10179;42.640;23.312;2024-03-08T10:23:31;2.33;;;1.70;;
20036;SDS011;10179;42.640;23.312;2024-03-08T10:26:00;2.22;;;1.75;;
20036;SDS011;10179;42.640;23.312;2024-03-08T10:28:34;9.05;;;2.35;;
20036;SDS011;10179;42.640;23.312;2024-03-08T10:31:00;6.80;;;2.40;;
20036;SDS011;10179;42.640;23.312;2024-03-08T10:33:25;7.88;;;2.88;;
20036;SDS011;10179;42.640;23.312;2024-03-08T10:35:51;14.68;;;3.28;;
20036;SDS011;10179;42.640;23.312;2024-03-08T10:38:16;5.60;;;2.70;;
20036;SDS011;10179;42.640;23.312;2024-03-08T10:40:46;3.88;;;2.75;;
20036;SDS011;10179;42.640;23.312;2024-03-08T10:43:18;3.40;;;2.40;;
20036;SDS011;10179;42.640;23.312;2024-03-08T10:45:49;3.05;;;2.35;;
20036;SDS011;10179;42.640;23.312;2024-03-08T10:48:29;3.78;;;2.17;;
20036;SDS011;10179;42.640;23.312;2024-03-08T10:51:01;3.22;;;2.10;;
20036;SDS011;10179;42.640;23.312;2024-03-08T10:53:28;6.40;;;2.35;;
20036;SDS011;10179;42.640;23.312;2024-03-08T10:55:56;5.07;;;2.35;;
20036;SDS011;10179;42.640;23.312;2024-03-08T10:58:22;2.72;;;2.08;;
20036;SDS011;10179;42.640;23.312;2024-03-08T11:00:53;5.88;;;2.28;;
20036;SDS011;10179;42.640;23.312;2024-03-08T11:06:05;4.57;;;2.20;;
20036;SDS011;10179;42.640;23.312;2024-03-08T11:08:31;3.10;;;2.17;;
20036;SDS011;10179;42.640;23.312;2024-03-08T11:10:58;4.50;;;3.13;;
20036;SDS011;10179;42.640;23.312;2024-03-08T11:16:02;4.35;;;2.30;;
20036;SDS011;10179;42.640;23.312;2024-03-08T11:18:32;3.05;;;2.20;;
20036;SDS011;10179;42.640;23.312;2024-03-08T11:21:02;3.15;;;2.17;;
20036;SDS011;10179;42.640;23.312;2024-03-08T11:23:31;4.05;;;2.20;;
20036;SDS011;10179;42.640;23.312;2024-03-08T11:25:58;9.18;;;2.78;;
20036;SDS011;10179;42.640;23.312;2024-03-08T11:28:24;3.10;;;1.98;;
20036;SDS011;10179;42.640;23.312;2024-03-08T11:33:27;4.93;;;2.20;;
20036;SDS011;10179;42.640;23.312;2024-03-08T11:36:03;1.90;;;1.38;;
20036;SDS011;10179;42.640;23.312;2024-03-08T11:38:47;4.63;;;1.98;;
20036;SDS011;10179;42.640;23.312;2024-03-08T11:41:20;6.53;;;1.85;;
20036;SDS011;10179;42.640;23.312;2024-03-08T11:43:48;2.80;;;2.00;;
20036;SDS011;10179;42.640;23.312;2024-03-08T11:46:15;4.80;;;2.10;;
20036;SDS011;10179;42.640;23.312;2024-03-08T11:48:42;17.67;;;3.17;;
20036;SDS011;10179;42.640;23.312;2024-03-08T11:51:09;8.57;;;2.33;;
20036;SDS011;10179;42.640;23.312;2024-03-08T11:53:37;5.78;;;2.35;;
20036;SDS011;10179;42.640;23.312;2024-03-08T11:56:12;3.45;;;1.70;;
20036;SDS011;10179;42.640;23.312;2024-03-08T11:58:39;8.60;;;1.65;;
20036;SDS011;10179;42.640;23.312;2024-03-08T12:01:06;5.30;;;2.47;;
20036;SDS011;10179;42.640;23.312;2024-03-08T12:03:41;5.38;;;2.65;;
20036;SDS011;10179;42.640;23.312;2024-03-08T12:06:09;5.32;;;1.80;;
20036;SDS011;10179;42.640;23.312;2024-03-08T12:08:35;24.65;;;8.02;;
20036;SDS011;10179;42.640;23.312;2024-03-08T12:11:03;2.35;;;1.85;;
20036;SDS011;10179;42.640;23.312;2024-03-08T12:13:30;4.78;;;2.00;;
20036;SDS011;10179;42.640;23.312;2024-03-08T12:15:59;11.05;;;3.67;;
20036;SDS011;10179;42.640;23.312;2024-03-08T12:18:26;8.60;;;2.60;;
20036;SDS011;10179;42.640;23.312;2024-03-08T12:21:03;6.95;;;2.22;;
20036;SDS011;10179;42.640;23.312;2024-03-08T12:23:31;3.97;;;2.20;;
20036;SDS011;10179;42.640;23.312;2024-03-08T12:25:56;5.80;;;2.40;;
20036;SDS011;10179;42.640;23.312;2024-03-08T12:28:22;6.75;;;2.20;;
20036;SDS011;10179;42.640;23.312;2024-03-08T12:30:51;1.83;;;1.60;;
20036;SDS011;10179;42.640;23.312;2024-03-08T12:33:19;5.70;;;2.08;;
20036;SDS011;10179;42.640;23.312;2024-03-08T12:35:54;18.17;;;3.00;;
20036;SDS011;10179;42.640;23.312;2024-03-08T12:38:23;6.97;;;2.63;;
20036;SDS011;10179;42.640;23.312;2024-03-08T12:40:56;3.30;;;1.95;;
20036;SDS011;10179;42.640;23.312;2024-03-08T12:43:24;3.22;;;2.10;;
20036;SDS011;10179;42.640;23.312;2024-03-08T12:45:49;8.38;;;1.48;;
20036;SDS011;10179;42.640;23.312;2024-03-08T12:48:16;2.90;;;1.52;;
20036;SDS011;10179;42.640;23.312;2024-03-08T12:50:42;5.75;;;1.42;;
20036;SDS011;10179;42.640;23.312;2024-03-08T12:53:12;2.28;;;0.90;;
20036;SDS011;10179;42.640;23.312;2024-03-08T12:55:38;2.38;;;1.67;;
20036;SDS011;10179;42.640;23.312;2024-03-08T12:58:05;7.22;;;1.52;;
20036;SDS011;10179;42.640;23.312;2024-03-08T13:00:32;1.90;;;1.30;;
20036;SDS011;10179;42.640;23.312;2024-03-08T13:03:01;3.45;;;1.95;;
20036;SDS011;10179;42.640;23.312;2024-03-08T13:05:27;2.03;;;1.20;;
20036;SDS011;10179;42.640;23.312;2024-03-08T13:07:52;2.75;;;1.30;;
20036;SDS011;10179;42.640;23.312;2024-03-08T13:10:20;8.93;;;2.53;;
20036;SDS011;10179;42.640;23.312;2024-03-08T13:12:45;6.20;;;2.10;;
20036;SDS011;10179;42.640;23.312;2024-03-08T13:15:11;3.53;;;1.60;;
20036;SDS011;10179;42.640;23.312;2024-03-08T13:17:40;2.72;;;1.30;;
20036;SDS011;10179;42.640;23.312;2024-03-08T13:20:07;9.65;;;2.38;;
20036;SDS011;10179;42.640;23.312;2024-03-08T13:22:34;2.28;;;1.55;;
20036;SDS011;10179;42.640;23.312;2024-03-08T13:25:00;3.58;;;1.80;;
20036;SDS011;10179;42.640;23.312;2024-03-08T13:27:29;5.22;;;1.80;;
20036;SDS011;10179;42.640;23.312;2024-03-08T13:29:54;4.95;;;1.60;;
20036;SDS011;10179;42.640;23.312;2024-03-08T13:32:19;3.33;;;2.08;;
20036;SDS011;10179;42.640;23.312;2024-03-08T13:34:49;3.75;;;1.70;;
20036;SDS011;10179;42.640;23.312;2024-03-08T13:37:15;1.90;;;1.63;;
20036;SDS011;10179;42.640;23.312;2024-03-08T13:39:42;4.90;;;1.85;;
20036;SDS011;10179;42.640;23.312;2024-03-08T13:42:10;3.70;;;1.80;;
20036;SDS011;10179;42.640;23.312;2024-03-08T13:44:47;4.18;;;1.70;;
20036;SDS011;10179;42.640;23.312;2024-03-08T13:47:16;15.68;;;2.80;;
20036;SDS011;10179;42.640;23.312;2024-03-08T13:49:42;7.60;;;1.75;;
20036;SDS011;10179;42.640;23.312;2024-03-08T13:52:09;2.72;;;1.63;;
20036;SDS011;10179;42.640;23.312;2024-03-08T13:54:35;3.15;;;1.38;;
20036;SDS011;10179;42.640;23.312;2024-03-08T13:57:01;5.28;;;1.70;;
20036;SDS011;10179;42.640;23.312;2024-03-08T13:59:29;2.22;;;1.60;;
20036;SDS011;10179;42.640;23.312;2024-03-08T14:01:55;2.88;;;1.58;;
20036;SDS011;10179;42.640;23.312;2024-03-08T14:04:22;3.08;;;1.63;;
20036;SDS011;10179;42.640;23.312;2024-03-08T14:06:47;4.78;;;1.80;;
20036;SDS011;10179;42.640;23.312;2024-03-08T14:09:14;4.95;;;1.73;;
20036;SDS011;10179;42.640;23.312;2024-03-08T14:11:45;2.45;;;1.27;;
20036;SDS011;10179;42.640;23.312;2024-03-08T14:14:11;4.53;;;1.92;;
20036;SDS011;10179;42.640;23.312;2024-03-08T14:16:39;4.00;;;1.83;;
20036;SDS011;10179;42.640;23.312;2024-03-08T14:19:05;3.25;;;1.60;;
20036;SDS011;10179;42.640;23.312;2024-03-08T14:21:31;8.57;;;1.40;;
20036;SDS011;10179;42.640;23.312;2024-03-08T14:23:56;5.82;;;1.58;;
20036;SDS011;10179;42.640;23.312;2024-03-08T14:26:22;2.95;;;1.80;;
20036;SDS011;10179;42.640;23.312;2024-03-08T14:28:47;2.47;;;1.42;;
20036;SDS011;10179;42.640;23.312;2024-03-08T14:31:12;1.63;;;1.35;;
20036;SDS011;10179;42.640;23.312;2024-03-08T14:33:38;2.10;;;1.55;;
20036;SDS011;10179;42.640;23.312;2024-03-08T14:36:03;5.50;;;1.70;;
20036;SDS011;10179;42.640;23.312;2024-03-08T14:38:31;2.40;;;1.70;;